createdAt,value
2022-08-26T00:00:19.629Z,8.70
2022-08-26T00:01:29.098Z,8.97
2022-08-26T00:02:32.892Z,8.47
2022-08-26T00:03:35.821Z,8.30
2022-08-26T00:04:38.423Z,7.70
2022-08-26T00:05:40.601Z,8.67
2022-08-26T00:06:46.172Z,17.20
2022-08-26T00:07:48.534Z,9.10
2022-08-26T00:08:51.821Z,8.90
2022-08-26T00:09:54.362Z,8.00
2022-08-26T00:10:58.060Z,10.93
2022-08-26T00:12:01.866Z,9.77
2022-08-26T00:13:06.597Z,8.90
2022-08-26T00:14:09.820Z,11.93
2022-08-26T00:15:15.424Z,9.40
2022-08-26T00:16:17.200Z,10.27
2022-08-26T00:17:19.838Z,10.27
2022-08-26T00:18:23.284Z,12.07
2022-08-26T00:19:28.583Z,10.90
2022-08-26T00:20:32.761Z,10.50
2022-08-26T00:21:37.574Z,15.37
2022-08-26T00:22:41.167Z,12.70
2022-08-26T00:23:43.820Z,11.43
2022-08-26T00:24:47.821Z,13.20
2022-08-26T00:25:50.793Z,13.60
2022-08-26T00:26:52.389Z,11.47
2022-08-26T00:27:54.929Z,11.70
2022-08-26T00:28:59.073Z,17.73
2022-08-26T00:30:03.296Z,15.80
2022-08-26T00:31:05.377Z,11.43
2022-08-26T00:32:09.585Z,11.73
2022-08-26T00:33:13.155Z,12.63
2022-08-26T00:34:16.661Z,16.10
2022-08-26T00:35:21.464Z,14.27
2022-08-26T00:36:25.687Z,15.67
2022-08-26T00:37:31.970Z,11.53
2022-08-26T00:38:37.814Z,12.03
2022-08-26T00:39:39.663Z,17.13
2022-08-26T00:40:46.899Z,16.20
2022-08-26T00:41:49.000Z,15.37
2022-08-26T00:42:51.644Z,19.37
2022-08-26T00:43:53.331Z,23.03
2022-08-26T00:44:57.345Z,20.27
2022-08-26T00:46:07.348Z,19.70
2022-08-26T00:47:17.397Z,21.27
2022-08-26T00:48:22.603Z,18.23
2022-08-26T00:49:32.377Z,19.60
2022-08-26T00:50:38.424Z,24.30
2022-08-26T00:51:46.811Z,24.97
2022-08-26T00:52:49.091Z,22.17
2022-08-26T00:53:56.353Z,22.77
2022-08-26T00:55:02.458Z,24.10
2022-08-26T00:56:10.689Z,30.40
2022-08-26T00:57:20.054Z,28.30
2022-08-26T00:58:25.133Z,26.07
2022-08-26T00:59:29.102Z,29.60
2022-08-26T01:00:37.153Z,27.40
2022-08-26T01:01:42.621Z,28.67
2022-08-26T01:02:49.512Z,29.13
2022-08-26T01:03:51.205Z,29.43
2022-08-26T01:04:59.892Z,36.07
2022-08-26T01:06:03.601Z,31.57
2022-08-26T01:07:06.879Z,32.23
2022-08-26T01:08:09.190Z,34.67
2022-08-26T01:09:11.954Z,32.63
2022-08-26T01:10:17.503Z,33.63
2022-08-26T01:11:20.952Z,34.97
2022-08-26T01:12:24.921Z,37.80
2022-08-26T01:13:29.939Z,32.67
2022-08-26T01:14:34.966Z,34.27
2022-08-26T01:15:44.574Z,39.07
2022-08-26T01:16:47.432Z,36.33
2022-08-26T01:17:51.696Z,36.13
2022-08-26T01:19:01.285Z,38.00
2022-08-26T01:20:14.070Z,35.47
2022-08-26T01:21:22.891Z,39.10
2022-08-26T01:22:34.973Z,39.67
2022-08-26T01:23:42.167Z,40.43
2022-08-26T01:24:48.141Z,36.73
2022-08-26T01:25:55.830Z,37.50
2022-08-26T01:26:59.527Z,36.80
2022-08-26T01:28:06.567Z,39.10
2022-08-26T01:29:12.648Z,43.43
2022-08-26T01:30:15.665Z,36.33
2022-08-26T01:31:21.250Z,43.13
2022-08-26T01:32:24.687Z,37.33
2022-08-26T01:33:42.035Z,48.20
2022-08-26T01:34:48.034Z,38.23
2022-08-26T01:35:50.196Z,40.87
2022-08-26T01:36:59.655Z,43.60
2022-08-26T01:38:02.264Z,45.23
2022-08-26T01:39:07.342Z,44.27
2022-08-26T01:40:14.309Z,42.30
2022-08-26T01:41:27.236Z,43.47
2022-08-26T01:42:29.729Z,41.80
2022-08-26T01:43:34.775Z,41.20
2022-08-26T01:44:41.051Z,48.77
2022-08-26T01:45:45.101Z,48.53
2022-08-26T01:46:49.963Z,45.40
2022-08-26T01:47:57.376Z,46.70
2022-08-26T01:49:03.302Z,56.30
2022-08-26T01:50:15.795Z,48.83
2022-08-26T01:51:31.716Z,44.60
2022-08-26T01:52:39.082Z,46.03
2022-08-26T01:53:46.110Z,46.37
2022-08-26T01:54:51.152Z,47.67
2022-08-26T01:55:57.163Z,43.50
2022-08-26T01:56:59.589Z,47.53
2022-08-26T01:58:06.258Z,51.77
2022-08-26T01:59:14.319Z,53.17
2022-08-26T02:00:17.043Z,48.23
2022-08-26T02:01:20.810Z,55.07
2022-08-26T02:02:23.464Z,48.07
2022-08-26T02:03:28.832Z,48.80
2022-08-26T02:04:34.626Z,48.93
2022-08-26T02:05:40.345Z,50.37
2022-08-26T02:06:45.695Z,46.03
2022-08-26T02:07:50.657Z,49.20
2022-08-26T02:08:55.321Z,51.27
2022-08-26T02:09:59.359Z,48.27
2022-08-26T02:11:00.986Z,50.37
2022-08-26T02:12:03.863Z,50.47
2022-08-26T02:13:07.822Z,51.90
2022-08-26T02:14:16.052Z,54.97
2022-08-26T02:15:17.999Z,52.57
2022-08-26T02:16:29.609Z,51.20
2022-08-26T02:17:37.264Z,54.50
2022-08-26T02:18:44.547Z,60.67
2022-08-26T02:19:50.367Z,49.67
2022-08-26T02:20:55.047Z,52.13
2022-08-26T02:21:59.357Z,54.33
2022-08-26T02:23:02.590Z,50.87
2022-08-26T02:24:11.991Z,52.33
2022-08-26T02:25:22.832Z,51.63
2022-08-26T02:26:26.910Z,57.37
2022-08-26T02:27:33.438Z,52.00
2022-08-26T02:28:40.687Z,51.13
2022-08-26T02:29:46.390Z,50.73
2022-08-26T02:30:55.381Z,56.53
2022-08-26T02:31:57.432Z,49.97
2022-08-26T02:33:03.466Z,50.77
2022-08-26T02:34:11.294Z,46.33
2022-08-26T02:35:20.045Z,49.20
2022-08-26T02:36:24.944Z,56.73
2022-08-26T02:37:31.499Z,47.30
2022-08-26T02:38:34.123Z,55.43
2022-08-26T02:39:37.428Z,49.13
2022-08-26T02:40:43.781Z,48.33
2022-08-26T02:41:45.740Z,47.73
2022-08-26T02:42:48.430Z,54.87
2022-08-26T02:43:50.083Z,47.83
2022-08-26T02:44:52.746Z,49.70
2022-08-26T02:45:54.456Z,46.67
2022-08-26T02:46:57.094Z,48.87
2022-08-26T02:47:59.688Z,48.10
2022-08-26T02:49:02.603Z,46.83
2022-08-26T02:50:05.129Z,47.80
2022-08-26T02:51:07.841Z,43.53
2022-08-26T02:52:09.663Z,50.10
2022-08-26T02:53:13.184Z,47.43
2022-08-26T02:54:15.493Z,49.20
2022-08-26T02:55:18.626Z,49.70
2022-08-26T02:56:21.716Z,48.03
2022-08-26T02:57:24.448Z,47.20
2022-08-26T02:58:26.221Z,56.07
2022-08-26T02:59:29.408Z,42.67
2022-08-26T03:00:32.470Z,44.27
2022-08-26T03:01:37.153Z,47.07
2022-08-26T03:02:38.816Z,44.80
2022-08-26T03:03:41.492Z,42.23
2022-08-26T03:04:58.156Z,46.10
2022-08-26T03:06:04.482Z,43.63
2022-08-26T03:07:06.936Z,42.83
2022-08-26T03:08:11.633Z,40.90
2022-08-26T03:09:14.022Z,42.57
2022-08-26T03:10:22.037Z,43.90
2022-08-26T03:11:27.626Z,38.03
2022-08-26T03:12:33.597Z,38.60
2022-08-26T03:13:36.686Z,43.77
2022-08-26T03:14:39.359Z,44.07
2022-08-26T03:15:41.918Z,46.00
2022-08-26T03:16:45.393Z,49.30
2022-08-26T03:17:50.496Z,42.33
2022-08-26T03:18:53.763Z,40.80
2022-08-26T03:19:57.222Z,41.73
2022-08-26T03:21:00.400Z,46.00
2022-08-26T03:22:03.889Z,45.07
2022-08-26T03:23:06.468Z,38.27
2022-08-26T03:24:10.485Z,44.23
2022-08-26T03:25:15.515Z,42.67
2022-08-26T03:26:17.283Z,46.23
2022-08-26T03:27:21.196Z,44.27
2022-08-26T03:28:22.897Z,40.63
2022-08-26T03:29:49.540Z,42.67
2022-08-26T03:30:53.398Z,51.90
2022-08-26T03:31:55.327Z,49.73
2022-08-26T03:32:58.065Z,41.63
2022-08-26T03:34:00.278Z,45.47
2022-08-26T03:35:02.916Z,43.47
2022-08-26T03:36:07.661Z,38.20
2022-08-26T03:37:10.240Z,42.43
2022-08-26T03:38:12.923Z,52.43
2022-08-26T03:39:14.626Z,39.30
2022-08-26T03:40:20.402Z,48.07
2022-08-26T03:41:22.238Z,41.10
2022-08-26T03:42:26.610Z,42.13
2022-08-26T03:43:28.239Z,39.00
2022-08-26T03:44:31.428Z,45.53
2022-08-26T03:45:34.557Z,39.87
2022-08-26T03:46:39.236Z,42.50
2022-08-26T03:47:41.084Z,41.37
2022-08-26T03:48:44.350Z,43.17
2022-08-26T03:49:46.382Z,41.00
2022-08-26T03:50:49.021Z,45.97
2022-08-26T03:51:53.119Z,42.90
2022-08-26T03:52:56.693Z,42.03
2022-08-26T03:54:00.516Z,43.40
2022-08-26T03:55:05.138Z,45.53
2022-08-26T03:56:08.127Z,43.37
2022-08-26T03:57:09.809Z,39.40
2022-08-26T03:58:13.712Z,38.87
2022-08-26T03:59:15.351Z,43.17
2022-08-26T04:00:20.119Z,37.90
2022-08-26T04:01:21.843Z,43.17
2022-08-26T04:02:24.853Z,36.97
2022-08-26T04:03:46.641Z,45.47
2022-08-26T04:04:49.181Z,41.60
2022-08-26T04:05:51.685Z,38.00
2022-08-26T04:06:59.207Z,38.50
2022-08-26T04:08:00.869Z,42.40
2022-08-26T04:09:09.395Z,43.03
2022-08-26T04:10:12.505Z,36.50
2022-08-26T04:11:18.673Z,40.73
2022-08-26T04:12:20.925Z,37.03
2022-08-26T04:13:24.955Z,35.40
2022-08-26T04:14:27.776Z,34.80
2022-08-26T04:15:30.478Z,38.17
2022-08-26T04:16:33.413Z,37.57
2022-08-26T04:17:36.235Z,38.00
2022-08-26T04:18:38.186Z,36.00
2022-08-26T04:19:49.385Z,37.83
2022-08-26T04:20:51.021Z,34.53
2022-08-26T04:21:54.880Z,34.87
2022-08-26T04:22:57.584Z,36.50
2022-08-26T04:23:59.283Z,34.37
2022-08-26T04:25:06.932Z,32.37
2022-08-26T04:26:08.635Z,31.70
2022-08-26T04:27:12.053Z,39.37
2022-08-26T04:28:14.713Z,33.80
2022-08-26T04:29:23.991Z,32.63
2022-08-26T04:30:25.971Z,36.63
2022-08-26T04:31:28.763Z,27.10
2022-08-26T04:32:32.602Z,37.50
2022-08-26T04:33:35.420Z,37.87
2022-08-26T04:34:44.871Z,34.60
2022-08-26T04:35:47.590Z,33.53
2022-08-26T04:36:50.162Z,33.07
2022-08-26T04:37:52.813Z,32.50
2022-08-26T04:38:54.492Z,27.37
2022-08-26T04:39:57.156Z,35.20
2022-08-26T04:40:58.767Z,33.07
2022-08-26T04:42:01.868Z,31.53
2022-08-26T04:43:04.004Z,32.10
2022-08-26T04:44:07.651Z,28.30
2022-08-26T04:45:12.490Z,28.83
2022-08-26T04:46:19.469Z,35.30
2022-08-26T04:47:22.149Z,28.17
2022-08-26T04:48:23.811Z,31.33
2022-08-26T04:49:28.529Z,30.27
2022-08-26T04:50:37.912Z,34.90
2022-08-26T04:51:41.022Z,30.00
2022-08-26T04:52:45.773Z,33.00
2022-08-26T04:53:48.756Z,33.70
2022-08-26T04:54:52.309Z,30.03
2022-08-26T04:55:55.608Z,25.83
2022-08-26T04:56:57.454Z,24.40
2022-08-26T04:58:00.603Z,26.73
2022-08-26T04:59:04.394Z,26.23
2022-08-26T05:00:13.218Z,24.97
2022-08-26T05:01:15.039Z,29.17
2022-08-26T05:02:18.070Z,26.47
2022-08-26T05:03:19.795Z,26.83
2022-08-26T05:04:22.529Z,31.37
2022-08-26T05:05:24.152Z,23.83
2022-08-26T05:06:27.949Z,25.47
2022-08-26T05:07:31.136Z,29.20
2022-08-26T05:08:33.573Z,25.50
2022-08-26T05:09:36.338Z,23.87
2022-08-26T05:10:41.120Z,26.47
2022-08-26T05:11:43.761Z,28.00
2022-08-26T05:12:50.391Z,27.47
2022-08-26T05:13:53.035Z,26.53
2022-08-26T05:14:55.043Z,32.70
2022-08-26T05:16:04.419Z,27.30
2022-08-26T05:17:07.067Z,34.17
2022-08-26T05:18:11.439Z,27.70
2022-08-26T05:19:14.544Z,31.63
2022-08-26T05:20:23.914Z,26.90
2022-08-26T05:21:29.397Z,28.13
2022-08-26T05:22:32.076Z,27.43
2022-08-26T05:23:35.900Z,22.43
2022-08-26T05:24:38.593Z,23.57
2022-08-26T05:25:43.127Z,23.90
2022-08-26T05:26:46.896Z,24.63
2022-08-26T05:27:48.488Z,22.37
2022-08-26T05:28:51.296Z,25.93
2022-08-26T05:29:57.205Z,26.67
2022-08-26T05:31:01.205Z,27.50
2022-08-26T05:32:04.648Z,27.43
2022-08-26T05:33:07.515Z,26.77
2022-08-26T05:34:10.406Z,21.80
2022-08-26T05:35:12.244Z,22.93
2022-08-26T05:36:17.846Z,27.57
2022-08-26T05:37:19.529Z,25.20
2022-08-26T05:38:23.301Z,24.30
2022-08-26T05:39:26.601Z,25.00
2022-08-26T05:40:32.047Z,24.30
2022-08-26T05:41:38.289Z,23.60
2022-08-26T05:42:41.203Z,21.07
2022-08-26T05:43:42.977Z,19.63
2022-08-26T05:44:55.613Z,27.23
2022-08-26T05:46:07.970Z,24.13
2022-08-26T05:47:10.684Z,21.83
2022-08-26T05:48:13.851Z,22.67
2022-08-26T05:49:29.430Z,22.73
2022-08-26T05:50:31.129Z,17.70
2022-08-26T05:51:36.118Z,25.50
2022-08-26T05:52:38.105Z,23.30
2022-08-26T05:53:43.750Z,21.53
2022-08-26T05:54:54.406Z,20.57
2022-08-26T05:55:57.116Z,22.87
2022-08-26T05:57:00.824Z,18.40
2022-08-26T05:58:02.825Z,20.70
2022-08-26T05:59:06.030Z,18.50
2022-08-26T06:00:16.194Z,19.17
2022-08-26T06:01:24.119Z,17.63
2022-08-26T06:02:26.082Z,23.80
2022-08-26T06:03:29.192Z,22.00
2022-08-26T06:04:31.675Z,17.50
2022-08-26T06:05:39.149Z,17.30
2022-08-26T06:06:43.193Z,17.57
2022-08-26T06:08:05.134Z,20.37
2022-08-26T06:09:11.185Z,23.00
2022-08-26T06:10:32.573Z,19.43
2022-08-26T06:11:35.601Z,21.20
2022-08-26T06:12:38.152Z,29.80
2022-08-26T06:13:41.558Z,20.03
2022-08-26T06:14:43.769Z,22.80
2022-08-26T06:15:49.152Z,15.30
2022-08-26T06:16:53.561Z,17.60
2022-08-26T06:17:56.149Z,19.57
2022-08-26T06:18:57.790Z,21.17
2022-08-26T06:20:00.715Z,18.10
2022-08-26T06:21:14.789Z,19.23
2022-08-26T06:22:35.876Z,16.97
2022-08-26T06:23:56.560Z,20.77
2022-08-26T06:25:19.268Z,28.47
2022-08-26T06:26:21.984Z,17.27
2022-08-26T06:27:27.283Z,17.20
2022-08-26T06:28:33.992Z,18.80
2022-08-26T06:29:37.578Z,18.70
2022-08-26T06:30:40.792Z,17.43
2022-08-26T06:31:43.738Z,20.87
2022-08-26T06:32:46.886Z,18.27
2022-08-26T06:33:50.399Z,17.70
2022-08-26T06:34:52.268Z,19.00
2022-08-26T06:35:56.677Z,18.13
2022-08-26T06:37:02.724Z,22.03
2022-08-26T06:38:06.549Z,19.60
2022-08-26T06:39:11.400Z,16.03
2022-08-26T06:40:13.484Z,21.00
2022-08-26T06:41:16.967Z,20.33
2022-08-26T06:42:19.175Z,20.40
2022-08-26T06:43:25.500Z,24.50
2022-08-26T06:44:28.886Z,17.80
2022-08-26T06:45:30.674Z,16.77
2022-08-26T06:46:34.623Z,15.47
2022-08-26T06:47:36.508Z,17.10
2022-08-26T06:48:41.365Z,14.23
2022-08-26T06:49:44.317Z,15.30
2022-08-26T06:50:47.705Z,19.53
2022-08-26T06:51:51.757Z,19.37
2022-08-26T06:52:54.370Z,16.10
2022-08-26T06:54:00.134Z,15.70
2022-08-26T06:55:03.172Z,16.80
2022-08-26T06:56:07.653Z,14.03
2022-08-26T06:57:12.145Z,16.33
2022-08-26T06:58:14.023Z,16.73
2022-08-26T06:59:16.686Z,18.63
2022-08-26T07:00:20.691Z,16.80
2022-08-26T07:01:25.645Z,16.63
2022-08-26T07:02:28.622Z,17.33
2022-08-26T07:03:31.745Z,17.80
2022-08-26T07:04:44.087Z,11.47
2022-08-26T07:05:50.403Z,15.43
2022-08-26T07:06:56.644Z,15.37
2022-08-26T07:07:59.481Z,13.87
2022-08-26T07:09:04.996Z,22.80
2022-08-26T07:10:08.447Z,16.30
2022-08-26T07:11:12.624Z,14.97
2022-08-26T07:12:14.282Z,11.77
2022-08-26T07:13:16.904Z,12.33
2022-08-26T07:14:34.931Z,15.77
2022-08-26T07:15:40.905Z,15.57
2022-08-26T07:16:43.888Z,13.73
2022-08-26T07:17:45.704Z,19.43
2022-08-26T07:18:48.865Z,18.83
2022-08-26T07:19:53.983Z,14.00
2022-08-26T07:20:55.683Z,13.90
2022-08-26T07:21:59.304Z,15.93
2022-08-26T07:23:00.949Z,15.30
2022-08-26T07:24:05.052Z,15.20
2022-08-26T07:25:08.677Z,14.03
2022-08-26T07:26:16.104Z,12.00
2022-08-26T07:27:18.881Z,16.47
2022-08-26T07:28:22.693Z,11.80
2022-08-26T07:29:25.412Z,19.00
2022-08-26T07:30:28.229Z,11.53
2022-08-26T07:31:37.364Z,14.90
2022-08-26T07:32:42.356Z,14.33
2022-08-26T07:33:44.881Z,12.70
2022-08-26T07:34:47.578Z,16.00
2022-08-26T07:35:51.622Z,19.20
2022-08-26T07:36:55.284Z,12.77
2022-08-26T07:37:58.111Z,17.10
2022-08-26T07:38:59.789Z,13.87
2022-08-26T07:40:02.527Z,13.10
2022-08-26T07:41:04.879Z,17.93
2022-08-26T07:42:08.574Z,12.67
2022-08-26T07:43:10.391Z,11.93
2022-08-26T07:44:12.971Z,12.10
2022-08-26T07:45:15.628Z,15.33
2022-08-26T07:46:18.567Z,14.90
2022-08-26T07:47:29.949Z,20.30
2022-08-26T07:48:32.327Z,14.50
2022-08-26T07:49:37.976Z,12.00
2022-08-26T07:50:50.266Z,13.37
2022-08-26T07:51:55.195Z,12.77
2022-08-26T07:52:57.959Z,15.17
2022-08-26T07:53:59.798Z,11.63
2022-08-26T07:55:04.396Z,13.00
2022-08-26T07:56:06.300Z,19.10
2022-08-26T07:57:09.391Z,12.63
2022-08-26T07:58:13.091Z,13.30
2022-08-26T07:59:15.799Z,13.07
2022-08-26T08:00:19.002Z,11.57
2022-08-26T08:01:23.471Z,10.60
2022-08-26T08:02:31.343Z,11.47
2022-08-26T08:03:35.529Z,13.07
2022-08-26T08:04:40.274Z,15.53
2022-08-26T08:05:56.785Z,11.97
2022-08-26T08:07:02.773Z,12.33
2022-08-26T08:08:26.621Z,11.27
2022-08-26T08:09:31.760Z,12.00
2022-08-26T08:10:39.525Z,16.03
2022-08-26T08:11:45.623Z,19.57
2022-08-26T08:12:53.897Z,18.27
2022-08-26T08:13:56.847Z,10.30
2022-08-26T08:14:59.698Z,10.13
2022-08-26T08:16:02.310Z,12.13
2022-08-26T08:17:05.472Z,18.23
2022-08-26T08:18:15.336Z,18.77
2022-08-26T08:19:18.546Z,13.10
2022-08-26T08:20:22.043Z,11.40
2022-08-26T08:21:26.342Z,17.37
2022-08-26T08:22:32.456Z,9.03
2022-08-26T08:23:35.383Z,10.50
2022-08-26T08:24:38.890Z,11.10
2022-08-26T08:25:43.776Z,11.80
2022-08-26T08:26:47.100Z,12.57
2022-08-26T08:27:48.801Z,11.73
2022-08-26T08:28:55.120Z,11.20
2022-08-26T08:29:57.167Z,10.10
2022-08-26T08:31:00.287Z,10.20
2022-08-26T08:32:03.526Z,12.00
2022-08-26T08:33:06.733Z,9.47
2022-08-26T08:34:09.591Z,12.60
2022-08-26T08:35:14.343Z,12.77
2022-08-26T08:36:18.627Z,9.83
2022-08-26T08:37:23.346Z,8.63
2022-08-26T08:38:27.400Z,8.53
2022-08-26T08:39:33.357Z,11.67
2022-08-26T08:40:40.440Z,9.60
2022-08-26T08:41:54.580Z,12.70
2022-08-26T08:43:03.531Z,9.13
2022-08-26T08:44:11.116Z,10.63
2022-08-26T08:45:17.690Z,11.43
2022-08-26T08:46:21.478Z,7.17
2022-08-26T08:47:29.476Z,8.60
2022-08-26T08:48:35.872Z,9.70
2022-08-26T08:49:38.013Z,7.07
2022-08-26T08:50:45.720Z,7.73
2022-08-26T08:51:52.009Z,10.00
2022-08-26T08:53:03.946Z,7.20
2022-08-26T08:54:13.459Z,14.70
2022-08-26T08:55:18.209Z,13.10
2022-08-26T08:56:29.109Z,13.13
2022-08-26T08:57:46.646Z,10.83
2022-08-26T08:58:56.786Z,7.10
2022-08-26T09:00:04.753Z,9.93
2022-08-26T09:01:18.418Z,10.50
2022-08-26T09:02:28.849Z,12.17
2022-08-26T09:03:45.520Z,8.23
2022-08-26T09:04:58.507Z,8.17
2022-08-26T09:06:01.653Z,10.13
2022-08-26T09:07:09.929Z,10.37
2022-08-26T09:08:19.924Z,7.30
2022-08-26T09:09:30.143Z,12.70
2022-08-26T09:10:38.093Z,8.07
2022-08-26T09:11:39.742Z,9.57
2022-08-26T09:12:44.244Z,10.73
2022-08-26T09:13:51.466Z,11.10
2022-08-26T09:14:57.700Z,8.70
2022-08-26T09:16:08.224Z,6.47
2022-08-26T09:17:22.529Z,11.70
2022-08-26T09:18:46.059Z,8.00
2022-08-26T09:19:52.315Z,8.00
2022-08-26T09:20:58.269Z,15.10
2022-08-26T09:22:06.994Z,9.33
2022-08-26T09:23:11.348Z,6.03
2022-08-26T09:24:14.169Z,7.40
2022-08-26T09:25:18.630Z,6.30
2022-08-26T09:26:29.090Z,8.30
2022-08-26T09:27:41.531Z,9.60
2022-08-26T09:28:49.042Z,8.13
2022-08-26T09:29:51.512Z,7.13
2022-08-26T09:31:11.493Z,9.40
2022-08-26T09:32:19.478Z,5.33
2022-08-26T09:33:29.142Z,7.60
2022-08-26T09:34:32.947Z,9.83
2022-08-26T09:35:37.659Z,13.70
2022-08-26T09:36:43.669Z,7.30
2022-08-26T09:38:55.290Z,9.10
2022-08-26T09:40:13.327Z,7.77
2022-08-26T09:41:27.965Z,7.33
2022-08-26T09:42:29.556Z,7.10
2022-08-26T09:43:32.740Z,7.80
2022-08-26T09:44:35.518Z,13.07
2022-08-26T09:45:39.783Z,8.67
2022-08-26T09:46:46.482Z,8.07
2022-08-26T09:47:55.191Z,6.80
2022-08-26T09:48:57.992Z,15.50
2022-08-26T09:50:09.923Z,9.73
2022-08-26T09:51:33.124Z,6.80
2022-08-26T09:52:34.915Z,10.17
2022-08-26T09:53:52.028Z,12.37
2022-08-26T09:55:16.996Z,8.00
2022-08-26T09:56:27.909Z,8.13
2022-08-26T09:57:33.193Z,16.90
2022-08-26T09:58:40.021Z,9.57
2022-08-26T09:59:43.879Z,12.47
2022-08-26T10:00:55.989Z,12.47
2022-08-26T10:02:18.324Z,8.90
2022-08-26T10:03:28.439Z,9.63
2022-08-26T10:04:33.656Z,8.60
2022-08-26T10:05:43.611Z,7.43
2022-08-26T10:06:57.712Z,8.67
2022-08-26T10:08:00.811Z,13.67
2022-08-26T10:09:08.343Z,7.50
2022-08-26T10:10:18.197Z,10.20
2022-08-26T10:11:27.955Z,7.40
2022-08-26T10:12:34.624Z,11.20
2022-08-26T10:13:43.705Z,9.37
2022-08-26T10:14:49.691Z,10.40
2022-08-26T10:15:59.031Z,5.87
2022-08-26T10:17:05.308Z,7.23
2022-08-26T10:18:16.090Z,9.23
2022-08-26T10:19:22.449Z,5.77
2022-08-26T10:20:28.133Z,6.70
2022-08-26T10:21:36.273Z,15.90
2022-08-26T10:22:44.049Z,5.30
2022-08-26T10:23:50.349Z,11.97
2022-08-26T10:24:55.840Z,12.00
2022-08-26T10:26:05.244Z,8.13
2022-08-26T10:27:28.607Z,9.87
2022-08-26T10:28:39.863Z,6.20
2022-08-26T10:29:46.634Z,6.47
2022-08-26T10:30:56.401Z,6.33
2022-08-26T10:32:03.491Z,6.53
2022-08-26T10:33:08.779Z,7.77
2022-08-26T10:34:14.158Z,10.40
2022-08-26T10:35:19.131Z,11.60
2022-08-26T10:36:58.640Z,11.57
2022-08-26T10:38:11.797Z,5.87
2022-08-26T10:39:23.727Z,10.00
2022-08-26T10:40:27.366Z,5.53
2022-08-26T10:41:33.698Z,8.83
2022-08-26T10:42:41.507Z,5.03
2022-08-26T10:43:53.423Z,5.70
2022-08-26T10:45:02.497Z,6.93
2022-08-26T10:46:09.230Z,7.80
2022-08-26T10:47:16.570Z,7.70
2022-08-26T10:48:25.806Z,7.83
2022-08-26T10:49:40.658Z,7.43
2022-08-26T10:50:44.679Z,6.40
2022-08-26T10:51:57.771Z,9.90
2022-08-26T10:53:05.843Z,7.20
2022-08-26T10:54:17.020Z,8.80
2022-08-26T10:55:29.879Z,12.90
2022-08-26T10:56:46.386Z,9.00
2022-08-26T10:57:57.054Z,5.47
2022-08-26T10:59:12.251Z,14.70
2022-08-26T11:00:36.702Z,6.80
2022-08-26T11:01:51.029Z,7.90
2022-08-26T11:03:01.013Z,12.37
2022-08-26T11:04:10.407Z,6.63
2022-08-26T11:05:19.614Z,15.77
2022-08-26T11:06:23.060Z,8.53
2022-08-26T11:07:43.854Z,7.13
2022-08-26T11:08:47.512Z,11.03
2022-08-26T11:09:50.127Z,11.37
2022-08-26T11:10:58.922Z,7.13
2022-08-26T11:12:09.991Z,8.03
2022-08-26T11:13:13.056Z,7.83
2022-08-26T11:16:10.038Z,9.87
2022-08-26T11:17:12.692Z,10.00
2022-08-26T11:18:37.032Z,11.80
2022-08-26T11:20:01.701Z,8.97
2022-08-26T11:21:47.796Z,12.90
2022-08-26T11:22:55.100Z,8.83
2022-08-26T11:23:56.886Z,5.43
2022-08-26T11:25:11.608Z,4.80
2022-08-26T11:26:18.876Z,10.57
2022-08-26T11:28:05.522Z,6.40
2022-08-26T11:29:13.418Z,6.40
2022-08-26T11:30:36.867Z,8.20
2022-08-26T11:31:57.652Z,5.47
2022-08-26T11:32:59.815Z,6.80
2022-08-26T11:34:03.943Z,8.87
2022-08-26T11:35:08.325Z,8.37
2022-08-26T11:36:12.652Z,6.20
2022-08-26T11:38:29.305Z,9.73
2022-08-26T11:39:36.675Z,10.40
2022-08-26T11:40:41.572Z,5.73
2022-08-26T11:41:45.404Z,4.70
2022-08-26T11:42:51.647Z,4.63
2022-08-26T11:43:54.135Z,8.47
2022-08-26T11:44:59.325Z,6.53
2022-08-26T11:46:06.187Z,6.53
2022-08-26T11:47:15.455Z,6.83
2022-08-26T11:48:20.972Z,8.30
2022-08-26T11:49:24.908Z,8.93
2022-08-26T11:50:29.747Z,8.93
2022-08-26T11:51:35.897Z,8.10
2022-08-26T11:52:40.909Z,5.07
2022-08-26T11:53:47.198Z,7.63
2022-08-26T11:55:03.117Z,4.80
2022-08-26T11:56:10.080Z,7.70
2022-08-26T11:57:13.654Z,5.43
2022-08-26T11:58:16.940Z,6.17
2022-08-26T11:59:25.107Z,8.10
2022-08-26T12:00:33.433Z,11.43
2022-08-26T12:01:40.728Z,6.93
2022-08-26T12:02:45.233Z,4.77
2022-08-26T12:03:50.038Z,8.63
2022-08-26T12:04:55.460Z,6.83
2022-08-26T12:05:58.740Z,7.83
2022-08-26T12:07:02.441Z,5.27
2022-08-26T12:08:09.851Z,5.20
2022-08-26T12:09:21.706Z,4.30
2022-08-26T12:10:30.077Z,3.57
2022-08-26T12:11:35.456Z,7.87
2022-08-26T12:12:38.681Z,7.97
2022-08-26T12:13:42.603Z,5.73
2022-08-26T12:14:45.078Z,6.10
2022-08-26T12:15:55.946Z,5.13
2022-08-26T12:17:09.846Z,7.33
2022-08-26T12:18:29.713Z,4.07
2022-08-26T12:19:34.630Z,8.87
2022-08-26T12:20:53.729Z,4.30
2022-08-26T12:22:01.917Z,5.53
2022-08-26T12:23:04.914Z,3.30
2022-08-26T12:24:09.911Z,5.30
2022-08-26T12:25:12.653Z,3.97
2022-08-26T12:26:23.306Z,2.90
2022-08-26T12:27:27.336Z,4.60
2022-08-26T12:28:32.113Z,8.37
2022-08-26T12:29:35.099Z,6.90
2022-08-26T12:30:37.050Z,6.97
2022-08-26T12:31:42.415Z,4.20
2022-08-26T12:32:56.548Z,10.63
2022-08-26T12:34:04.026Z,5.03
2022-08-26T12:35:10.830Z,5.30
2022-08-26T12:36:13.562Z,6.57
2022-08-26T12:37:16.628Z,4.33
2022-08-26T12:38:21.342Z,5.47
2022-08-26T12:39:30.173Z,8.77
2022-08-26T12:40:36.347Z,10.97
2022-08-26T12:41:41.495Z,4.73
2022-08-26T12:42:44.352Z,4.87
2022-08-26T12:43:46.139Z,9.00
2022-08-26T12:44:54.089Z,16.70
2022-08-26T12:45:59.734Z,5.03
2022-08-26T12:47:09.143Z,6.87
2022-08-26T12:48:14.385Z,7.93
2022-08-26T12:49:18.958Z,5.63
2022-08-26T12:50:24.684Z,3.20
2022-08-26T12:51:29.157Z,4.93
2022-08-26T12:52:35.514Z,6.40
2022-08-26T12:53:43.017Z,8.63
2022-08-26T12:55:02.637Z,6.13
2022-08-26T12:56:20.609Z,4.90
2022-08-26T12:57:27.547Z,5.97
2022-08-26T12:58:32.792Z,6.70
2022-08-26T12:59:34.413Z,5.53
2022-08-26T13:00:40.582Z,6.30
2022-08-26T13:01:45.608Z,5.80
2022-08-26T13:02:47.369Z,2.80
2022-08-26T13:03:51.746Z,5.47
2022-08-26T13:05:00.776Z,5.33
2022-08-26T13:06:25.727Z,8.00
2022-08-26T13:07:27.565Z,5.87
2022-08-26T13:08:31.260Z,7.23
2022-08-26T13:09:32.880Z,7.73
2022-08-26T13:10:36.628Z,7.83
2022-08-26T13:12:00.363Z,5.53
2022-08-26T13:13:04.021Z,4.43
2022-08-26T13:14:08.656Z,4.70
2022-08-26T13:15:10.467Z,10.03
2022-08-26T13:16:14.010Z,7.80
2022-08-26T13:17:16.887Z,5.10
2022-08-26T13:18:19.514Z,5.87
2022-08-26T13:19:25.333Z,8.27
2022-08-26T13:20:29.362Z,3.40
2022-08-26T13:21:37.725Z,7.20
2022-08-26T13:22:42.589Z,7.20
2022-08-26T13:23:45.548Z,7.00
2022-08-26T13:24:47.228Z,5.93
2022-08-26T13:25:50.053Z,12.90
2022-08-26T13:26:52.949Z,8.07
2022-08-26T13:27:55.199Z,9.23
2022-08-26T13:29:02.228Z,3.67
2022-08-26T13:30:05.731Z,8.63
2022-08-26T13:31:11.216Z,8.20
2022-08-26T13:32:14.906Z,7.83
2022-08-26T13:33:19.344Z,7.00
2022-08-26T13:34:24.332Z,4.17
2022-08-26T13:35:27.736Z,7.17
2022-08-26T13:36:32.014Z,6.47
2022-08-26T13:37:35.285Z,5.57
2022-08-26T13:38:38.403Z,7.30
2022-08-26T13:39:41.815Z,5.93
2022-08-26T13:40:44.764Z,5.77
2022-08-26T13:41:47.700Z,4.60
2022-08-26T13:42:50.316Z,15.40
2022-08-26T13:43:52.914Z,8.10
2022-08-26T13:44:57.880Z,9.93
2022-08-26T13:46:01.685Z,7.83
2022-08-26T13:47:03.397Z,8.40
2022-08-26T13:48:07.743Z,16.17
2022-08-26T13:49:09.958Z,10.37
2022-08-26T13:50:12.599Z,8.10
2022-08-26T13:51:14.404Z,11.67
2022-08-26T13:52:18.574Z,4.70
2022-08-26T13:53:33.169Z,8.87
2022-08-26T13:54:34.758Z,4.47
2022-08-26T13:55:37.392Z,12.17
2022-08-26T13:56:39.032Z,8.43
2022-08-26T13:57:41.643Z,5.87
2022-08-26T13:58:43.315Z,6.83
2022-08-26T13:59:48.694Z,4.47
2022-08-26T14:00:50.340Z,7.50
2022-08-26T14:01:52.982Z,5.40
2022-08-26T14:02:56.020Z,3.63
2022-08-26T14:03:59.585Z,7.90
2022-08-26T14:05:02.602Z,6.47
2022-08-26T14:06:05.481Z,10.33
2022-08-26T14:07:08.281Z,3.73
2022-08-26T14:08:11.670Z,3.97
2022-08-26T14:09:14.260Z,4.20
2022-08-26T14:10:15.912Z,6.47
2022-08-26T14:11:19.375Z,4.60
2022-08-26T14:12:21.256Z,19.03
2022-08-26T14:13:23.955Z,10.30
2022-08-26T14:14:25.890Z,4.53
2022-08-26T14:15:29.161Z,5.80
2022-08-26T14:16:35.915Z,8.20
2022-08-26T14:17:39.145Z,7.50
2022-08-26T14:18:45.183Z,7.17
2022-08-26T14:19:51.312Z,6.87
2022-08-26T14:20:52.954Z,4.33